PWSweather.com
Personal Weather Stations
Station Observations
KPAWHITE2
Hokendauqua, Whitehall, PA 18052

HokendauquaWhitehall, PA 18052

Lat: 40.656, Lon: -75.493

Elevation: 310

Station Type: Davis Vantage Pro 2

http://wx.eichman.net

Latest ConditionsUpdated 2:08:00 AM EDT Thursday, Oct 18, 2018
Currently Today's Max Today's Min Today's Average
Temperature 43.9°F6.6°C 46.3°F7.9°C 43.9°F6.6°C 45.1°F7.3°C
Dew Point 30.9°F-0.6°C 33.7°F0.9°C 30.0°F-1.1°C 31.6°F-0.2°C
Winds 1.0 mph NW1.6 kmh NW 5.0 mph -8.0 kmh - - 2.4 mph 3.9 kmh
Wind Gusts 9.0 mph14.5 kmh 21.0 mph33.8 kmh - -
Humidity 60% 62% 56% 59%
Pressure 30.20 in1022.7 mb 30.20 in1022.7 mb 30.16 in1021.3 mb -
Hour Temp Dew Point Humidity Winds Wind Gusts Pressure Precip Precip Rate Daily Precip Total
02:08 AM 43.9°F6.6°C 30.9°F-0.6°C 60% 1.0 mph NW1.6 kmh NW 9.0 mph14.5 kmh 30.20 in1022.7 mb 0.00 in0.0 mm 0.00 in0.0 mm 0.00 in0.0 mm
02:07 AM 43.9°F6.6°C 30.9°F-0.6°C 60% 1.0 mph NW1.6 kmh NW 9.0 mph14.5 kmh 30.20 in1022.7 mb 0.00 in0.0 mm 0.00 in0.0 mm 0.00 in0.0 mm
02:06 AM 44.0°F6.7°C 30.6°F-0.8°C 59% 1.0 mph NW1.6 kmh NW 9.0 mph14.5 kmh 30.20 in1022.7 mb 0.00 in0.0 mm 0.00 in0.0 mm 0.00 in0.0 mm
02:05 AM 44.1°F6.7°C 31.1°F-0.5°C 60% 2.0 mph NW3.2 kmh NW 9.0 mph14.5 kmh 30.20 in1022.7 mb 0.00 in0.0 mm 0.00 in0.0 mm 0.00 in0.0 mm
02:04 AM 44.1°F6.7°C 30.7°F-0.7°C 59% 2.0 mph NW3.2 kmh NW 11.0 mph17.7 kmh 30.20 in1022.7 mb 0.00 in0.0 mm 0.00 in0.0 mm 0.00 in0.0 mm
02:03 AM 44.2°F6.8°C 30.8°F-0.7°C 59% 2.0 mph NW3.2 kmh NW 11.0 mph17.7 kmh 30.20 in1022.7 mb 0.00 in0.0 mm 0.00 in0.0 mm 0.00 in0.0 mm
02:02 AM 44.3°F6.8°C 30.9°F-0.6°C 59% 2.0 mph NW3.2 kmh NW 11.0 mph17.7 kmh 30.20 in1022.7 mb 0.00 in0.0 mm 0.00 in0.0 mm 0.00 in0.0 mm
02:01 AM 44.3°F6.8°C 30.9°F-0.6°C 59% 2.0 mph NW3.2 kmh NW 13.0 mph20.9 kmh 30.20 in1022.7 mb 0.00 in0.0 mm 0.00 in0.0 mm 0.00 in0.0 mm
02:00 AM 44.4°F6.9°C 30.5°F-0.8°C 58% 2.0 mph NW3.2 kmh NW 13.0 mph20.9 kmh 30.20 in1022.7 mb 0.00 in0.0 mm 0.00 in0.0 mm 0.00 in0.0 mm
01:59 AM 44.4°F6.9°C 30.5°F-0.8°C 58% 2.0 mph NW3.2 kmh NW 13.0 mph20.9 kmh 30.20 in1022.7 mb 0.00 in0.0 mm 0.00 in0.0 mm 0.00 in0.0 mm
01:58 AM 44.4°F6.9°C 30.5°F-0.8°C 58% 3.0 mph NW4.8 kmh NW 13.0 mph20.9 kmh 30.20 in1022.7 mb 0.00 in0.0 mm 0.00 in0.0 mm 0.00 in0.0 mm
01:57 AM 44.5°F6.9°C 30.6°F-0.8°C 58% 3.0 mph NW4.8 kmh NW 13.0 mph20.9 kmh 30.20 in1022.7 mb 0.00 in0.0 mm 0.00 in0.0 mm 0.00 in0.0 mm
01:56 AM 44.6°F7.0°C 30.7°F-0.7°C 58% 3.0 mph NW4.8 kmh NW 13.0 mph20.9 kmh 30.20 in1022.7 mb 0.00 in0.0 mm 0.00 in0.0 mm 0.00 in0.0 mm
01:55 AM 44.5°F6.9°C 30.6°F-0.8°C 58% 3.0 mph NW4.8 kmh NW 14.0 mph22.5 kmh 30.20 in1022.7 mb 0.00 in0.0 mm 0.00 in0.0 mm 0.00 in0.0 mm
01:54 AM 44.7°F7.1°C 31.2°F-0.4°C 59% 4.0 mph NW6.4 kmh NW 14.0 mph22.5 kmh 30.20 in1022.7 mb 0.00 in0.0 mm 0.00 in0.0 mm 0.00 in0.0 mm
01:53 AM 44.7°F7.1°C 30.8°F-0.7°C 58% 4.0 mph NW6.4 kmh NW 16.0 mph25.7 kmh 30.20 in1022.7 mb 0.00 in0.0 mm 0.00 in0.0 mm 0.00 in0.0 mm
01:52 AM 44.8°F7.1°C 30.9°F-0.6°C 58% 4.0 mph NW6.4 kmh NW 16.0 mph25.7 kmh 30.20 in1022.7 mb 0.00 in0.0 mm 0.00 in0.0 mm 0.00 in0.0 mm
01:51 AM 44.8°F7.1°C 30.5°F-0.8°C 57% 4.0 mph NW6.4 kmh NW 16.0 mph25.7 kmh 30.20 in1022.7 mb 0.00 in0.0 mm 0.00 in0.0 mm 0.00 in0.0 mm
01:50 AM 44.8°F7.1°C 30.9°F-0.6°C 58% 4.0 mph NW6.4 kmh NW 16.0 mph25.7 kmh 30.20 in1022.7 mb 0.00 in0.0 mm 0.00 in0.0 mm 0.00 in0.0 mm
01:49 AM 44.8°F7.1°C 30.5°F-0.8°C 57% 5.0 mph NW8.0 kmh NW 16.0 mph25.7 kmh 30.20 in1022.7 mb 0.00 in0.0 mm 0.00 in0.0 mm 0.00 in0.0 mm
01:48 AM 44.8°F7.1°C 30.5°F-0.8°C 57% 5.0 mph NW8.0 kmh NW 16.0 mph25.7 kmh 30.20 in1022.7 mb 0.00 in0.0 mm 0.00 in0.0 mm 0.00 in0.0 mm
01:47 AM 44.8°F7.1°C 30.5°F-0.8°C 57% 5.0 mph NW8.0 kmh NW 16.0 mph25.7 kmh 30.20 in1022.7 mb 0.00 in0.0 mm 0.00 in0.0 mm 0.00 in0.0 mm
01:46 AM 44.8°F7.1°C 30.5°F-0.8°C 57% 4.0 mph NW6.4 kmh NW 16.0 mph25.7 kmh 30.20 in1022.7 mb 0.00 in0.0 mm 0.00 in0.0 mm 0.00 in0.0 mm
01:45 AM 44.8°F7.1°C 30.5°F-0.8°C 57% 4.0 mph NW6.4 kmh NW 16.0 mph25.7 kmh 30.20 in1022.7 mb 0.00 in0.0 mm 0.00 in0.0 mm 0.00 in0.0 mm
01:44 AM 44.8°F7.1°C 30.5°F-0.8°C 57% 4.0 mph NW6.4 kmh NW 16.0 mph25.7 kmh 30.20 in1022.7 mb 0.00 in0.0 mm 0.00 in0.0 mm 0.00 in0.0 mm
01:43 AM 44.8°F7.1°C 30.9°F-0.6°C 58% 4.0 mph NW6.4 kmh NW 13.0 mph20.9 kmh 30.20 in1022.7 mb 0.00 in0.0 mm 0.00 in0.0 mm 0.00 in0.0 mm
01:42 AM 44.8°F7.1°C 30.5°F-0.8°C 57% 4.0 mph NW6.4 kmh NW 13.0 mph20.9 kmh 30.20 in1022.7 mb 0.00 in0.0 mm 0.00 in0.0 mm 0.00 in0.0 mm
01:41 AM 44.7°F7.1°C 30.8°F-0.7°C 58% 5.0 mph NW8.0 kmh NW 21.0 mph33.8 kmh 30.20 in1022.7 mb 0.00 in0.0 mm 0.00 in0.0 mm 0.00 in0.0 mm
01:40 AM 44.7°F7.1°C 30.4°F-0.9°C 57% 5.0 mph NW8.0 kmh NW 21.0 mph33.8 kmh 30.20 in1022.7 mb 0.00 in0.0 mm 0.00 in0.0 mm 0.00 in0.0 mm
01:39 AM 44.7°F7.1°C 30.8°F-0.7°C 58% 4.0 mph NW6.4 kmh NW 21.0 mph33.8 kmh 30.20 in1022.7 mb 0.00 in0.0 mm 0.00 in0.0 mm 0.00 in0.0 mm
01:38 AM 44.7°F7.1°C 30.4°F-0.9°C 57% 4.0 mph NW6.4 kmh NW 21.0 mph33.8 kmh 30.20 in1022.7 mb 0.00 in0.0 mm 0.00 in0.0 mm 0.00 in0.0 mm
01:37 AM 44.7°F7.1°C 30.8°F-0.7°C 58% 3.0 mph NW4.8 kmh NW 21.0 mph33.8 kmh 30.19 in1022.4 mb 0.00 in0.0 mm 0.00 in0.0 mm 0.00 in0.0 mm
01:36 AM 44.7°F7.1°C 30.4°F-0.9°C 57% 4.0 mph NW6.4 kmh NW 21.0 mph33.8 kmh 30.19 in1022.4 mb 0.00 in0.0 mm 0.00 in0.0 mm 0.00 in0.0 mm
01:35 AM 44.7°F7.1°C 30.0°F-1.1°C 56% 4.0 mph NW6.4 kmh NW 21.0 mph33.8 kmh 30.19 in1022.4 mb 0.00 in0.0 mm 0.00 in0.0 mm 0.00 in0.0 mm
01:34 AM 44.6°F7.0°C 30.3°F-0.9°C 57% 3.0 mph NW4.8 kmh NW 21.0 mph33.8 kmh 30.19 in1022.4 mb 0.00 in0.0 mm 0.00 in0.0 mm 0.00 in0.0 mm
01:33 AM 44.6°F7.0°C 30.3°F-0.9°C 57% 3.0 mph NW4.8 kmh NW 21.0 mph33.8 kmh 30.19 in1022.4 mb 0.00 in0.0 mm 0.00 in0.0 mm 0.00 in0.0 mm
01:32 AM 44.5°F6.9°C 30.2°F-1.0°C 57% 2.0 mph NW3.2 kmh NW 21.0 mph33.8 kmh 30.19 in1022.4 mb 0.00 in0.0 mm 0.00 in0.0 mm 0.00 in0.0 mm
01:31 AM 44.5°F6.9°C 30.2°F-1.0°C 57% 1.0 mph NW1.6 kmh NW 14.0 mph22.5 kmh 30.19 in1022.4 mb 0.00 in0.0 mm 0.00 in0.0 mm 0.00 in0.0 mm
01:30 AM 44.5°F6.9°C 30.6°F-0.8°C 58% 1.0 mph NW1.6 kmh NW 11.0 mph17.7 kmh 30.19 in1022.4 mb 0.00 in0.0 mm 0.00 in0.0 mm 0.00 in0.0 mm
01:29 AM 44.5°F6.9°C 30.6°F-0.8°C 58% 1.0 mph NW1.6 kmh NW 10.0 mph16.1 kmh 30.19 in1022.4 mb 0.00 in0.0 mm 0.00 in0.0 mm 0.00 in0.0 mm
01:28 AM 44.4°F6.9°C 30.5°F-0.8°C 58% 1.0 mph NW1.6 kmh NW 10.0 mph16.1 kmh 30.19 in1022.4 mb 0.00 in0.0 mm 0.00 in0.0 mm 0.00 in0.0 mm
01:27 AM 44.4°F6.9°C 30.1°F-1.1°C 57% 1.0 mph NW1.6 kmh NW 10.0 mph16.1 kmh 30.19 in1022.4 mb 0.00 in0.0 mm 0.00 in0.0 mm 0.00 in0.0 mm
01:26 AM 44.5°F6.9°C 30.2°F-1.0°C 57% 1.0 mph NW1.6 kmh NW 10.0 mph16.1 kmh 30.18 in1022.0 mb 0.00 in0.0 mm 0.00 in0.0 mm 0.00 in0.0 mm
01:25 AM 44.5°F6.9°C 30.2°F-1.0°C 57% 1.0 mph NW1.6 kmh NW 10.0 mph16.1 kmh 30.18 in1022.0 mb 0.00 in0.0 mm 0.00 in0.0 mm 0.00 in0.0 mm
01:24 AM 44.5°F6.9°C 30.2°F-1.0°C 57% 1.0 mph NW1.6 kmh NW 7.0 mph11.3 kmh 30.18 in1022.0 mb 0.00 in0.0 mm 0.00 in0.0 mm 0.00 in0.0 mm
01:23 AM 44.5°F6.9°C 30.2°F-1.0°C 57% 1.0 mph NW1.6 kmh NW 7.0 mph11.3 kmh 30.18 in1022.0 mb 0.00 in0.0 mm 0.00 in0.0 mm 0.00 in0.0 mm
01:22 AM 44.6°F7.0°C 30.7°F-0.7°C 58% 1.0 mph NW1.6 kmh NW 7.0 mph11.3 kmh 30.18 in1022.0 mb 0.00 in0.0 mm 0.00 in0.0 mm 0.00 in0.0 mm
01:21 AM 44.6°F7.0°C 30.3°F-0.9°C 57% 1.0 mph NW1.6 kmh NW 7.0 mph11.3 kmh 30.18 in1022.0 mb 0.00 in0.0 mm 0.00 in0.0 mm 0.00 in0.0 mm
01:20 AM 44.6°F7.0°C 30.3°F-0.9°C 57% 1.0 mph NW1.6 kmh NW 7.0 mph11.3 kmh 30.18 in1022.0 mb 0.00 in0.0 mm 0.00 in0.0 mm 0.00 in0.0 mm
01:19 AM 44.6°F7.0°C 30.7°F-0.7°C 58% 2.0 mph NW3.2 kmh NW 7.0 mph11.3 kmh 30.18 in1022.0 mb 0.00 in0.0 mm 0.00 in0.0 mm 0.00 in0.0 mm
01:18 AM 44.7°F7.1°C 30.4°F-0.9°C 57% 2.0 mph NW3.2 kmh NW 11.0 mph17.7 kmh 30.18 in1022.0 mb 0.00 in0.0 mm 0.00 in0.0 mm 0.00 in0.0 mm
01:17 AM 44.7°F7.1°C 30.0°F-1.1°C 56% 2.0 mph NW3.2 kmh NW 14.0 mph22.5 kmh 30.18 in1022.0 mb 0.00 in0.0 mm 0.00 in0.0 mm 0.00 in0.0 mm
01:16 AM 44.7°F7.1°C 30.0°F-1.1°C 56% 2.0 mph NW3.2 kmh NW 14.0 mph22.5 kmh 30.18 in1022.0 mb 0.00 in0.0 mm 0.00 in0.0 mm 0.00 in0.0 mm
01:15 AM 44.7°F7.1°C 30.0°F-1.1°C 56% 2.0 mph NW3.2 kmh NW 14.0 mph22.5 kmh 30.18 in1022.0 mb 0.00 in0.0 mm 0.00 in0.0 mm 0.00 in0.0 mm
01:14 AM 44.8°F7.1°C 30.0°F-1.1°C 56% 2.0 mph NW3.2 kmh NW 14.0 mph22.5 kmh 30.18 in1022.0 mb 0.00 in0.0 mm 0.00 in0.0 mm 0.00 in0.0 mm
01:13 AM 44.8°F7.1°C 30.0°F-1.1°C 56% 2.0 mph NW3.2 kmh NW 14.0 mph22.5 kmh 30.18 in1022.0 mb 0.00 in0.0 mm 0.00 in0.0 mm 0.00 in0.0 mm
01:12 AM 44.8°F7.1°C 30.0°F-1.1°C 56% 2.0 mph NW3.2 kmh NW 14.0 mph22.5 kmh 30.18 in1022.0 mb 0.00 in0.0 mm 0.00 in0.0 mm 0.00 in0.0 mm
01:11 AM 44.9°F7.2°C 30.1°F-1.1°C 56% 2.0 mph NW3.2 kmh NW 14.0 mph22.5 kmh 30.17 in1021.7 mb 0.00 in0.0 mm 0.00 in0.0 mm 0.00 in0.0 mm
01:10 AM 44.8°F7.1°C 30.0°F-1.1°C 56% 2.0 mph NW3.2 kmh NW 14.0 mph22.5 kmh 30.17 in1021.7 mb 0.00 in0.0 mm 0.00 in0.0 mm 0.00 in0.0 mm
01:09 AM 44.8°F7.1°C 30.0°F-1.1°C 56% 2.0 mph NW3.2 kmh NW 14.0 mph22.5 kmh 30.17 in1021.7 mb 0.00 in0.0 mm 0.00 in0.0 mm 0.00 in0.0 mm
01:08 AM 44.8°F7.1°C 30.5°F-0.8°C 57% 1.0 mph NW1.6 kmh NW 14.0 mph22.5 kmh 30.17 in1021.7 mb 0.00 in0.0 mm 0.00 in0.0 mm 0.00 in0.0 mm
01:07 AM 44.8°F7.1°C 30.5°F-0.8°C 57% 1.0 mph WNW1.6 kmh WNW 10.0 mph16.1 kmh 30.17 in1021.7 mb 0.00 in0.0 mm 0.00 in0.0 mm 0.00 in0.0 mm
01:06 AM 44.9°F7.2°C 30.6°F-0.8°C 57% 2.0 mph WNW3.2 kmh WNW 10.0 mph16.1 kmh 30.17 in1021.7 mb 0.00 in0.0 mm 0.00 in0.0 mm 0.00 in0.0 mm
01:05 AM 44.9°F7.2°C 31.0°F-0.6°C 58% 2.0 mph NW3.2 kmh NW 10.0 mph16.1 kmh 30.17 in1021.7 mb 0.00 in0.0 mm 0.00 in0.0 mm 0.00 in0.0 mm
01:04 AM 44.9°F7.2°C 30.6°F-0.8°C 57% 2.0 mph NW3.2 kmh NW 11.0 mph17.7 kmh 30.17 in1021.7 mb 0.00 in0.0 mm 0.00 in0.0 mm 0.00 in0.0 mm
01:03 AM 44.9°F7.2°C 30.6°F-0.8°C 57% 2.0 mph NW3.2 kmh NW 11.0 mph17.7 kmh 30.17 in1021.7 mb 0.00 in0.0 mm 0.00 in0.0 mm 0.00 in0.0 mm
01:02 AM 44.9°F7.2°C 31.0°F-0.6°C 58% 2.0 mph WNW3.2 kmh WNW 11.0 mph17.7 kmh 30.17 in1021.7 mb 0.00 in0.0 mm 0.00 in0.0 mm 0.00 in0.0 mm
01:01 AM 44.9°F7.2°C 31.4°F-0.3°C 59% 2.0 mph NW3.2 kmh NW 11.0 mph17.7 kmh 30.17 in1021.7 mb 0.00 in0.0 mm 0.00 in0.0 mm 0.00 in0.0 mm
01:00 AM 44.9°F7.2°C 31.4°F-0.3°C 59% 2.0 mph NW3.2 kmh NW 11.0 mph17.7 kmh 30.17 in1021.7 mb 0.00 in0.0 mm 0.00 in0.0 mm 0.00 in0.0 mm
12:59 AM 44.9°F7.2°C 31.4°F-0.3°C 59% 2.0 mph NW3.2 kmh NW 11.0 mph17.7 kmh 30.17 in1021.7 mb 0.00 in0.0 mm 0.00 in0.0 mm 0.00 in0.0 mm
12:58 AM 44.9°F7.2°C 31.8°F-0.1°C 60% 2.0 mph NW3.2 kmh NW 11.0 mph17.7 kmh 30.17 in1021.7 mb 0.00 in0.0 mm 0.00 in0.0 mm 0.00 in0.0 mm
12:57 AM 45.0°F7.2°C 31.5°F-0.3°C 59% 2.0 mph NW3.2 kmh NW 11.0 mph17.7 kmh 30.17 in1021.7 mb 0.00 in0.0 mm 0.00 in0.0 mm 0.00 in0.0 mm
12:56 AM 45.0°F7.2°C 31.5°F-0.3°C 59% 1.0 mph NW1.6 kmh NW 11.0 mph17.7 kmh 30.17 in1021.7 mb 0.00 in0.0 mm 0.00 in0.0 mm 0.00 in0.0 mm
12:55 AM 44.9°F7.2°C 31.4°F-0.3°C 59% 1.0 mph NW1.6 kmh NW 11.0 mph17.7 kmh 30.17 in1021.7 mb 0.00 in0.0 mm 0.00 in0.0 mm 0.00 in0.0 mm
12:54 AM 45.0°F7.2°C 31.5°F-0.3°C 59% 1.0 mph NW1.6 kmh NW 8.0 mph12.9 kmh 30.17 in1021.7 mb 0.00 in0.0 mm 0.00 in0.0 mm 0.00 in0.0 mm
12:53 AM 45.0°F7.2°C 31.9°F-0.1°C 60% 1.0 mph NW1.6 kmh NW 8.0 mph12.9 kmh 30.17 in1021.7 mb 0.00 in0.0 mm 0.00 in0.0 mm 0.00 in0.0 mm
12:52 AM 45.0°F7.2°C 32.3°F0.2°C 61% 1.0 mph NW1.6 kmh NW 6.0 mph9.7 kmh 30.16 in1021.3 mb 0.00 in0.0 mm 0.00 in0.0 mm 0.00 in0.0 mm
12:51 AM 45.0°F7.2°C 31.9°F-0.1°C 60% 1.0 mph NW1.6 kmh NW 8.0 mph12.9 kmh 30.17 in1021.7 mb 0.00 in0.0 mm 0.00 in0.0 mm 0.00 in0.0 mm
12:50 AM 45.1°F7.3°C 32.4°F0.2°C 61% 1.0 mph NW1.6 kmh NW 8.0 mph12.9 kmh 30.17 in1021.7 mb 0.00 in0.0 mm 0.00 in0.0 mm 0.00 in0.0 mm
12:49 AM 45.1°F7.3°C 32.4°F0.2°C 61% 1.0 mph NW1.6 kmh NW 8.0 mph12.9 kmh 30.17 in1021.7 mb 0.00 in0.0 mm 0.00 in0.0 mm 0.00 in0.0 mm
12:48 AM 45.1°F7.3°C 32.4°F0.2°C 61% 1.0 mph NW1.6 kmh NW 8.0 mph12.9 kmh 30.17 in1021.7 mb 0.00 in0.0 mm 0.00 in0.0 mm 0.00 in0.0 mm
12:47 AM 45.2°F7.3°C 32.5°F0.3°C 61% 1.0 mph NW1.6 kmh NW 8.0 mph12.9 kmh 30.17 in1021.7 mb 0.00 in0.0 mm 0.00 in0.0 mm 0.00 in0.0 mm
12:46 AM 45.2°F7.3°C 32.5°F0.3°C 61% 1.0 mph NW1.6 kmh NW 8.0 mph12.9 kmh 30.17 in1021.7 mb 0.00 in0.0 mm 0.00 in0.0 mm 0.00 in0.0 mm
12:45 AM 45.2°F7.3°C 32.5°F0.3°C 61% 1.0 mph NW1.6 kmh NW 8.0 mph12.9 kmh 30.17 in1021.7 mb 0.00 in0.0 mm 0.00 in0.0 mm 0.00 in0.0 mm
12:44 AM 45.2°F7.3°C 32.5°F0.3°C 61% 1.0 mph NW1.6 kmh NW 8.0 mph12.9 kmh 30.17 in1021.7 mb 0.00 in0.0 mm 0.00 in0.0 mm 0.00 in0.0 mm
12:43 AM 45.3°F7.4°C 32.6°F0.3°C 61% 1.0 mph NW1.6 kmh NW 8.0 mph12.9 kmh 30.17 in1021.7 mb 0.00 in0.0 mm 0.00 in0.0 mm 0.00 in0.0 mm
12:42 AM 45.3°F7.4°C 32.6°F0.3°C 61% 1.0 mph NW1.6 kmh NW 11.0 mph17.7 kmh 30.17 in1021.7 mb 0.00 in0.0 mm 0.00 in0.0 mm 0.00 in0.0 mm
12:41 AM 45.3°F7.4°C 32.6°F0.3°C 61% 1.0 mph NW1.6 kmh NW 11.0 mph17.7 kmh 30.17 in1021.7 mb 0.00 in0.0 mm 0.00 in0.0 mm 0.00 in0.0 mm
12:40 AM 45.3°F7.4°C 32.6°F0.3°C 61% 1.0 mph NW1.6 kmh NW 11.0 mph17.7 kmh 30.17 in1021.7 mb 0.00 in0.0 mm 0.00 in0.0 mm 0.00 in0.0 mm
12:39 AM 45.4°F7.4°C 33.1°F0.6°C 62% 1.0 mph NW1.6 kmh NW 11.0 mph17.7 kmh 30.17 in1021.7 mb 0.00 in0.0 mm 0.00 in0.0 mm 0.00 in0.0 mm
12:38 AM 45.4°F7.4°C 33.1°F0.6°C 62% 1.0 mph NW1.6 kmh NW 11.0 mph17.7 kmh 30.17 in1021.7 mb 0.00 in0.0 mm 0.00 in0.0 mm 0.00 in0.0 mm
12:37 AM 45.5°F7.5°C 32.8°F0.4°C 61% 1.0 mph NW1.6 kmh NW 11.0 mph17.7 kmh 30.17 in1021.7 mb 0.00 in0.0 mm 0.00 in0.0 mm 0.00 in0.0 mm
12:36 AM 45.5°F7.5°C 33.2°F0.7°C 62% 1.0 mph NW1.6 kmh NW 11.0 mph17.7 kmh 30.16 in1021.3 mb 0.00 in0.0 mm 0.00 in0.0 mm 0.00 in0.0 mm
12:35 AM 45.5°F7.5°C 33.2°F0.7°C 62% 1.0 mph NW1.6 kmh NW 11.0 mph17.7 kmh 30.16 in1021.3 mb 0.00 in0.0 mm 0.00 in0.0 mm 0.00 in0.0 mm
12:34 AM 45.6°F7.6°C 32.9°F0.5°C 61% 1.0 mph NW1.6 kmh NW 11.0 mph17.7 kmh 30.16 in1021.3 mb 0.00 in0.0 mm 0.00 in0.0 mm 0.00 in0.0 mm
12:33 AM 45.6°F7.6°C 32.9°F0.5°C 61% 1.0 mph NNW1.6 kmh NNW 11.0 mph17.7 kmh 30.16 in1021.3 mb 0.00 in0.0 mm 0.00 in0.0 mm 0.00 in0.0 mm
12:32 AM 45.7°F7.6°C 33.0°F0.6°C 61% 1.0 mph NNW1.6 kmh NNW 10.0 mph16.1 kmh 30.17 in1021.7 mb 0.00 in0.0 mm 0.00 in0.0 mm 0.00 in0.0 mm
12:31 AM 45.7°F7.6°C 33.4°F0.8°C 62% 1.0 mph NNW1.6 kmh NNW 10.0 mph16.1 kmh 30.17 in1021.7 mb 0.00 in0.0 mm 0.00 in0.0 mm 0.00 in0.0 mm
12:30 AM 45.7°F7.6°C 33.4°F0.8°C 62% 1.0 mph NNW1.6 kmh NNW 7.0 mph11.3 kmh 30.17 in1021.7 mb 0.00 in0.0 mm 0.00 in0.0 mm 0.00 in0.0 mm
12:29 AM 45.8°F7.7°C 33.1°F0.6°C 61% 1.0 mph NW1.6 kmh NW 7.0 mph11.3 kmh 30.17 in1021.7 mb 0.00 in0.0 mm 0.00 in0.0 mm 0.00 in0.0 mm
12:28 AM 45.8°F7.7°C 33.1°F0.6°C 61% 2.0 mph NW3.2 kmh NW 7.0 mph11.3 kmh 30.17 in1021.7 mb 0.00 in0.0 mm 0.00 in0.0 mm 0.00 in0.0 mm
12:27 AM 45.9°F7.7°C 33.6°F0.9°C 62% 2.0 mph NW3.2 kmh NW 9.0 mph14.5 kmh 30.17 in1021.7 mb 0.00 in0.0 mm 0.00 in0.0 mm 0.00 in0.0 mm
12:26 AM 45.9°F7.7°C 33.6°F0.9°C 62% 2.0 mph NW3.2 kmh NW 9.0 mph14.5 kmh 30.17 in1021.7 mb 0.00 in0.0 mm 0.00 in0.0 mm 0.00 in0.0 mm
12:25 AM 46.0°F7.8°C 33.7°F0.9°C 62% 3.0 mph NW4.8 kmh NW 10.0 mph16.1 kmh 30.16 in1021.3 mb 0.00 in0.0 mm 0.00 in0.0 mm 0.00 in0.0 mm
12:24 AM 46.0°F7.8°C 33.7°F0.9°C 62% 3.0 mph NW4.8 kmh NW 18.0 mph29.0 kmh 30.16 in1021.3 mb 0.00 in0.0 mm 0.00 in0.0 mm 0.00 in0.0 mm
12:23 AM 46.0°F7.8°C 33.3°F0.7°C 61% 3.0 mph NW4.8 kmh NW 18.0 mph29.0 kmh 30.16 in1021.3 mb 0.00 in0.0 mm 0.00 in0.0 mm 0.00 in0.0 mm
12:22 AM 46.1°F7.8°C 33.4°F0.8°C 61% 4.0 mph NW6.4 kmh NW 18.0 mph29.0 kmh 30.17 in1021.7 mb 0.00 in0.0 mm 0.00 in0.0 mm 0.00 in0.0 mm
12:21 AM 46.1°F7.8°C 33.4°F0.8°C 61% 4.0 mph NW6.4 kmh NW 18.0 mph29.0 kmh 30.17 in1021.7 mb 0.00 in0.0 mm 0.00 in0.0 mm 0.00 in0.0 mm
12:20 AM 46.2°F7.9°C 33.5°F0.8°C 61% 4.0 mph NW6.4 kmh NW 18.0 mph29.0 kmh 30.16 in1021.3 mb 0.00 in0.0 mm 0.00 in0.0 mm 0.00 in0.0 mm
12:19 AM 46.2°F7.9°C 33.1°F0.6°C 60% 4.0 mph NW6.4 kmh NW 18.0 mph29.0 kmh 30.16 in1021.3 mb 0.00 in0.0 mm 0.00 in0.0 mm 0.00 in0.0 mm
12:18 AM 46.2°F7.9°C 33.1°F0.6°C 60% 4.0 mph NW6.4 kmh NW 18.0 mph29.0 kmh 30.17 in1021.7 mb 0.00 in0.0 mm 0.00 in0.0 mm 0.00 in0.0 mm
12:17 AM 46.2°F7.9°C 33.1°F0.6°C 60% 4.0 mph NW6.4 kmh NW 18.0 mph29.0 kmh 30.16 in1021.3 mb 0.00 in0.0 mm 0.00 in0.0 mm 0.00 in0.0 mm
12:16 AM 46.2°F7.9°C 33.1°F0.6°C 60% 4.0 mph NW6.4 kmh NW 18.0 mph29.0 kmh 30.16 in1021.3 mb 0.00 in0.0 mm 0.00 in0.0 mm 0.00 in0.0 mm
12:15 AM 46.2°F7.9°C 33.1°F0.6°C 60% 4.0 mph NW6.4 kmh NW 18.0 mph29.0 kmh 30.16 in1021.3 mb 0.00 in0.0 mm 0.00 in0.0 mm 0.00 in0.0 mm
12:14 AM 46.2°F7.9°C 33.5°F0.8°C 61% 4.0 mph NW6.4 kmh NW 14.0 mph22.5 kmh 30.16 in1021.3 mb 0.00 in0.0 mm 0.00 in0.0 mm 0.00 in0.0 mm
12:13 AM 46.3°F7.9°C 33.2°F0.7°C 60% 4.0 mph NW6.4 kmh NW 18.0 mph29.0 kmh 30.16 in1021.3 mb 0.00 in0.0 mm 0.00 in0.0 mm 0.00 in0.0 mm
12:12 AM 46.2°F7.9°C 33.1°F0.6°C 60% 4.0 mph NW6.4 kmh NW 18.0 mph29.0 kmh 30.16 in1021.3 mb 0.00 in0.0 mm 0.00 in0.0 mm 0.00 in0.0 mm
12:11 AM 46.3°F7.9°C 33.2°F0.7°C 60% 4.0 mph NW6.4 kmh NW 18.0 mph29.0 kmh 30.16 in1021.3 mb 0.00 in0.0 mm 0.00 in0.0 mm 0.00 in0.0 mm
12:10 AM 46.3°F7.9°C 33.2°F0.7°C 60% 4.0 mph NW6.4 kmh NW 20.0 mph32.2 kmh 30.16 in1021.3 mb 0.00 in0.0 mm 0.00 in0.0 mm 0.00 in0.0 mm
12:09 AM 46.2°F7.9°C 33.1°F0.6°C 60% 4.0 mph NW6.4 kmh NW 20.0 mph32.2 kmh 30.16 in1021.3 mb 0.00 in0.0 mm 0.00 in0.0 mm 0.00 in0.0 mm
12:08 AM 46.3°F7.9°C 33.2°F0.7°C 60% 3.0 mph NW4.8 kmh NW 20.0 mph32.2 kmh 30.16 in1021.3 mb 0.00 in0.0 mm 0.00 in0.0 mm 0.00 in0.0 mm
12:07 AM 46.3°F7.9°C 33.2°F0.7°C 60% 3.0 mph NW4.8 kmh NW 20.0 mph32.2 kmh 30.16 in1021.3 mb 0.00 in0.0 mm 0.00 in0.0 mm 0.00 in0.0 mm
12:06 AM 46.3°F7.9°C 33.6°F0.9°C 61% 3.0 mph NW4.8 kmh NW 20.0 mph32.2 kmh 30.16 in1021.3 mb 0.00 in0.0 mm 0.00 in0.0 mm 0.00 in0.0 mm
12:05 AM 46.3°F7.9°C 33.2°F0.7°C 60% 4.0 mph NW6.4 kmh NW 20.0 mph32.2 kmh 30.16 in1021.3 mb 0.00 in0.0 mm 0.00 in0.0 mm 0.00 in0.0 mm
12:04 AM 46.2°F7.9°C 33.1°F0.6°C 60% 4.0 mph NW6.4 kmh NW 20.0 mph32.2 kmh 30.16 in1021.3 mb 0.00 in0.0 mm 0.00 in0.0 mm 0.00 in0.0 mm
12:03 AM 46.2°F7.9°C 33.1°F0.6°C 60% 4.0 mph NW6.4 kmh NW 20.0 mph32.2 kmh 30.16 in1021.3 mb 0.00 in0.0 mm 0.00 in0.0 mm 0.00 in0.0 mm
12:02 AM 46.3°F7.9°C 33.6°F0.9°C 61% 3.0 mph NW4.8 kmh NW 20.0 mph32.2 kmh 30.16 in1021.3 mb 0.00 in0.0 mm 0.00 in0.0 mm 0.00 in0.0 mm
12:01 AM 46.3°F7.9°C 33.6°F0.9°C 61% 4.0 mph NW6.4 kmh NW 20.0 mph32.2 kmh 30.16 in1021.3 mb 0.00 in0.0 mm 0.00 in0.0 mm 0.00 in0.0 mm
12:00 AM 46.3°F7.9°C 33.6°F0.9°C 61% 4.0 mph NW6.4 kmh NW 12.0 mph19.3 kmh 30.16 in1021.3 mb 0.00 in0.0 mm 0.00 in0.0 mm 0.00 in0.0 mm